Terminal Aerodrome Forecast
Issued by NWS Cleveland, OH

Home | Current Version | Previous Version | Graphics & Text | Print | Product List | Glossary On
Versions: 1 2 3 4 5 6 7 8 9 10 11 12 13 14 15 16 17 18 19 20 21 22 23 24 25 26 27 28
000
FTUS41 KCLE 132300
TAFCLE
TAF
KCLE 132330Z 1400/1506 20014G22KT P6SM SCT050 BKN200 WS010/21040KT
     FM140900 19017G27KT P6SM VCSH BKN050 WS017/21045KT
     FM141500 20022G32KT 5SM -SHRA VCTS BKN030CB OVC080
     FM142100 26015G23KT 4SM -SHRA BKN015 OVC025
     FM142300 33013G20KT 6SM -SHRA SCT012 OVC018=

USA.gov is the U.S. government's official web portal to all federal, state and local government web resources and services.